Time;durP1;ratioP1;P1;durP2;ratioP2;P2;SDS_P1;SDS_P2;PMS_P1;PMS_P2;Temp;Humidity;BMP_temperature;BMP_pressure;BME280_temperature;BME280_humidity;BME280_pressure;Samples;Min_cycle;Max_cycle;Signal;HPM_P1;HPM_P2
2023/03/27 00:00:57;;;;;;;1999.90;999.90;;;4.00;99.90;;;;;;4924273;29;20418;-83
2023/03/27 00:03:24;;;;;;;1999.90;999.90;;;4.40;99.90;;;;;;4917007;29;20048;-81
2023/03/27 00:06:26;;;;;;;1999.90;999.90;;;4.40;99.90;;;;;;4914451;29;20052;-87
2023/03/27 00:08:52;;;;;;;1999.90;999.90;;;6.00;99.90;;;;;;4856188;29;20526;-81
2023/03/27 00:11:20;;;;;;;1999.90;999.90;;;2.90;99.90;;;;;;4904863;29;20048;-81
2023/03/27 00:13:48;;;;;;;1999.90;999.90;;;6.50;99.90;;;;;;4918879;29;20051;-81
2023/03/27 00:16:14;;;;;;;1999.90;999.90;;;3.50;99.90;;;;;;4918137;29;20063;-81
2023/03/27 00:18:40;;;;;;;1999.90;999.90;;;3.90;99.90;;;;;;4914510;29;20048;-80
2023/03/27 00:21:06;;;;;;;1999.90;999.90;;;4.60;99.90;;;;;;4907298;29;20112;-81
2023/03/27 00:23:32;;;;;;;1999.90;999.90;;;3.10;99.90;;;;;;4914086;29;20079;-84
2023/03/27 00:25:58;;;;;;;1999.90;999.90;;;3.70;99.90;;;;;;4933823;29;20043;-85
2023/03/27 00:28:27;;;;;;;1999.90;999.90;;;6.20;99.90;;;;;;4941101;29;20059;-80
2023/03/27 00:30:54;;;;;;;1999.90;999.90;;;2.90;99.90;;;;;;4934324;29;20070;-81
2023/03/27 00:33:21;;;;;;;1999.90;999.90;;;3.20;99.90;;;;;;4934530;28;20102;-81
2023/03/27 00:35:48;;;;;;;1999.90;999.90;;;4.80;99.90;;;;;;4938087;29;20130;-80
2023/03/27 00:38:15;;;;;;;1999.90;999.90;;;4.70;99.90;;;;;;4926616;29;20062;-81
2023/03/27 00:40:45;;;;;;;1999.90;999.90;;;3.60;99.90;;;;;;4918379;29;20445;-81
2023/03/27 00:43:21;;;;;;;1999.90;999.90;;;3.90;99.90;;;;;;4927988;29;20477;-81
2023/03/27 00:45:49;;;;;;;1999.90;999.90;;;4.30;99.90;;;;;;4917354;29;20091;-82
2023/03/27 00:48:15;;;;;;;;;;;5.20;99.90;;;;;;4917444;29;20055;-81
2023/03/27 00:50:43;;;;;;;1999.90;999.90;;;3.40;99.90;;;;;;4938298;29;19922;-80
2023/03/27 00:53:15;;;;;;;1999.90;999.90;;;4.10;99.90;;;;;;4927311;29;20047;-81
2023/03/27 00:55:44;;;;;;;1999.90;999.90;;;4.40;99.90;;;;;;4923368;29;20083;-81
2023/03/27 00:58:16;;;;;;;1999.90;999.90;;;1.80;99.90;;;;;;4952014;28;20055;-80
2023/03/27 01:00:42;;;;;;;1999.90;999.90;;;5.70;99.90;;;;;;4950934;29;20054;-80
2023/03/27 01:03:10;;;;;;;1999.90;999.90;;;5.10;99.90;;;;;;4946760;29;20132;-81
2023/03/27 01:05:36;;;;;;;1999.90;999.90;;;5.90;99.90;;;;;;4950135;28;20486;-82
2023/03/27 01:08:02;;;;;;;1999.90;999.90;;;2.40;99.90;;;;;;4937023;29;20052;-81
2023/03/27 01:11:10;;;;;;;1999.90;999.90;;;2.30;99.90;;;;;;4919501;29;20515;-82
2023/03/27 01:13:59;;;;;;;1999.90;999.90;;;3.20;99.90;;;;;;4887559;29;20232;-81
2023/03/27 01:16:42;;;;;;;1999.90;999.90;;;3.00;99.90;;;;;;4942528;28;20059;-83
2023/03/27 01:19:27;;;;;;;1999.90;999.90;;;3.10;99.90;;;;;;4937818;29;20087;-82
2023/03/27 01:21:53;;;;;;;1999.90;999.90;;;;;;;;;;4957718;29;20135;-81
2023/03/27 01:24:39;;;;;;;1999.90;999.90;;;2.40;99.90;;;;;;4943870;29;20052;-81
2023/03/27 01:27:17;;;;;;;1999.90;999.90;;;3.20;99.90;;;;;;4924636;29;20043;-81
2023/03/27 01:29:52;;;;;;;1999.90;999.90;;;3.20;99.90;;;;;;4932324;29;20056;-81
2023/03/27 01:32:55;;;;;;;1999.90;999.90;;;6.10;99.90;;;;;;4933720;29;20156;-82
2023/03/27 01:35:45;;;;;;;1999.90;999.90;;;4.50;99.90;;;;;;4922137;29;20160;-81
2023/03/27 01:38:11;;;;;;;1999.90;999.90;;;;;;;;;;4924223;29;20560;-82
2023/03/27 01:40:58;;;;;;;1999.90;999.90;;;3.20;99.90;;;;;;4927558;29;20053;-81
2023/03/27 01:43:35;;;;;;;1999.90;999.90;;;3.60;99.90;;;;;;4928776;29;20047;-82
2023/03/27 01:46:21;;;;;;;1999.90;999.90;;;3.20;99.90;;;;;;4920370;29;20089;-81
2023/03/27 01:48:47;;;;;;;1999.90;999.90;;;;;;;;;;4921227;29;20067;-86
2023/03/27 01:51:24;;;;;;;1999.90;999.90;;;3.50;99.90;;;;;;4922943;29;20142;-82
2023/03/27 01:53:57;;;;;;;1999.90;999.90;;;3.00;99.90;;;;;;4915083;29;20817;-82
2023/03/27 01:56:36;;;;;;;1999.90;999.90;;;4.10;99.90;;;;;;4916114;29;20067;-81
2023/03/27 01:59:15;;;;;;;1999.90;999.90;;;4.20;99.90;;;;;;4917775;29;20179;-85
2023/03/27 02:01:46;;;;;;;1999.90;999.90;;;2.30;99.90;;;;;;4925504;29;20067;-82
2023/03/27 02:04:20;;;;;;;1999.90;999.90;;;2.20;99.90;;;;;;4917362;29;20048;-81
2023/03/27 02:07:01;;;;;;;1999.90;999.90;;;5.20;99.90;;;;;;4920853;29;20048;-81
2023/03/27 02:09:35;;;;;;;1999.90;999.90;;;3.00;99.90;;;;;;4918290;29;20063;-81
2023/03/27 02:12:10;;;;;;;1999.90;999.90;;;3.70;99.90;;;;;;4917001;29;20040;-81
2023/03/27 02:14:42;;;;;;;1999.90;999.90;;;3.00;99.90;;;;;;4931688;29;20044;-81
2023/03/27 02:17:12;;;;;;;1999.90;999.90;;;4.00;99.90;;;;;;4917281;29;20477;-81
2023/03/27 02:20:01;;;;;;;1999.90;999.90;;;3.70;99.90;;;;;;4918141;29;20507;-81
2023/03/27 02:22:27;;;;;;;1999.90;999.90;;;4.10;99.90;;;;;;4922851;29;20059;-83
2023/03/27 02:24:53;;;;;;;1999.90;999.90;;;2.90;99.90;;;;;;4923490;29;20409;-81
2023/03/27 02:27:38;;;;;;;1999.90;999.90;;;2.80;99.90;;;;;;4927117;29;20084;-81
2023/03/27 02:30:16;;;;;;;1999.90;999.90;;;3.00;99.90;;;;;;4918745;29;20421;-81
2023/03/27 02:32:57;;;;;;;1999.90;999.90;;;3.00;99.90;;;;;;4933247;29;20063;-81
2023/03/27 02:35:50;;;;;;;1999.90;999.90;;;2.90;99.90;;;;;;4916926;29;20052;-81
2023/03/27 02:38:30;;;;;;;1999.90;999.90;;;3.00;99.90;;;;;;4924098;29;20382;-81
2023/03/27 02:41:29;;;;;;;1999.90;999.90;;;5.50;99.90;;;;;;4919513;29;20052;-82
2023/03/27 02:44:28;;;;;;;1999.90;999.90;;;3.10;99.90;;;;;;4926593;28;20052;-85
2023/03/27 02:47:01;;;;;;;1999.90;999.90;;;4.90;99.90;;;;;;4930841;29;20400;-86
2023/03/27 02:49:36;;;;;;;1999.90;999.90;;;3.20;99.90;;;;;;4929321;29;20050;-81
2023/03/27 02:52:17;;;;;;;1999.90;999.90;;;3.30;99.90;;;;;;4916851;29;20071;-80
2023/03/27 02:54:48;;;;;;;1999.90;999.90;;;3.80;99.90;;;;;;4924360;29;20042;-80
2023/03/27 02:57:18;;;;;;;1999.90;999.90;;;3.50;99.90;;;;;;4942562;29;20515;-80
2023/03/27 02:59:52;;;;;;;1999.90;999.90;;;4.20;99.90;;;;;;4947148;29;20055;-81
2023/03/27 03:02:23;;;;;;;1999.90;999.90;;;3.60;99.90;;;;;;4947621;28;20582;-80
2023/03/27 03:05:21;;;;;;;1999.90;999.90;;;4.30;99.90;;;;;;4956367;28;20118;-80
2023/03/27 03:07:47;;;;;;;1999.90;999.90;;;3.60;99.90;;;;;;4950902;28;20055;-80
2023/03/27 03:10:14;;;;;;;1999.90;999.90;;;5.20;99.90;;;;;;4917272;29;20059;-80
2023/03/27 03:12:40;;;;;;;1999.90;999.90;;;4.70;99.90;;;;;;4928230;29;20131;-81
2023/03/27 03:15:07;;;;;;;1999.90;999.90;;;5.10;99.90;;;;;;4941377;29;20134;-80
2023/03/27 03:17:34;;;;;;;1999.90;999.90;;;3.50;99.90;;;;;;4951303;29;20039;-81
2023/03/27 03:19:59;;;;;;;1999.90;999.90;;;2.90;99.90;;;;;;4935680;29;20058;-84
2023/03/27 03:22:25;;;;;;;1999.90;999.90;;;3.20;99.90;;;;;;4950606;29;20047;-80
2023/03/27 03:24:51;;;;;;;1999.90;999.90;;;5.30;99.90;;;;;;4950756;29;20106;-80
2023/03/27 03:27:19;;;;;;;1999.90;999.90;;;6.00;99.90;;;;;;4920236;29;20059;-80
2023/03/27 03:29:48;;;;;;;1999.90;999.90;;;3.50;99.90;;;;;;4919886;29;20122;-81
2023/03/27 03:32:14;;;;;;;1999.90;999.90;;;2.00;99.90;;;;;;4938650;29;20055;-81
2023/03/27 03:34:45;;;;;;;1999.90;999.90;;;2.60;99.90;;;;;;4944640;29;20046;-80
2023/03/27 03:37:11;;;;;;;1999.90;999.90;;;3.80;99.90;;;;;;4939017;29;20039;-80
2023/03/27 03:39:37;;;;;;;1999.90;999.90;;;3.30;99.90;;;;;;4942476;28;20051;-81
2023/03/27 03:42:03;;;;;;;1999.90;999.90;;;2.90;99.90;;;;;;4932216;28;20087;-82
2023/03/27 03:44:29;;;;;;;1999.90;999.90;;;3.50;1.00;;;;;;4924315;28;20127;-81
2023/03/27 03:46:55;;;;;;;1999.90;999.90;;;3.70;1.00;;;;;;4920938;29;20048;-81
2023/03/27 03:49:21;;;;;;;1999.90;999.90;;;4.70;1.00;;;;;;4926256;29;20056;-80
2023/03/27 03:51:46;;;;;;;1999.90;999.90;;;4.50;1.00;;;;;;4918577;29;20043;-81
2023/03/27 03:54:12;;;;;;;1999.90;999.90;;;4.60;1.00;;;;;;4933414;29;20052;-81
2023/03/27 03:56:41;;;;;;;1999.90;999.90;;;;;;;;;;4934633;29;20043;-84
2023/03/27 03:59:08;;;;;;;1999.90;999.90;;;3.20;1.00;;;;;;4934001;29;20040;-84
2023/03/27 04:01:34;;;;;;;1999.90;999.90;;;2.70;1.00;;;;;;4916891;29;20086;-82
2023/03/27 04:04:01;;;;;;;1999.90;999.90;;;3.60;1.00;;;;;;4920604;29;20481;-81
2023/03/27 04:06:29;;;;;;;1999.90;999.90;;;3.20;1.00;;;;;;4922135;29;20052;-81
2023/03/27 04:08:55;;;;;;;1999.90;999.90;;;3.20;1.00;;;;;;4920908;29;20056;-84
2023/03/27 04:11:21;;;;;;;1999.90;999.90;;;3.10;1.00;;;;;;4929883;29;20051;-82
2023/03/27 04:13:47;;;;;;;1999.90;999.90;;;2.50;1.00;;;;;;4909618;29;20114;-82
2023/03/27 04:16:13;;;;;;;1999.90;999.90;;;5.30;1.00;;;;;;4932584;29;20511;-81
2023/03/27 04:18:40;;;;;;;1999.90;999.90;;;2.40;1.00;;;;;;4930645;29;20062;-81
2023/03/27 04:21:13;;;;;;;1999.90;999.90;;;3.00;1.00;;;;;;4932993;29;20055;-82
2023/03/27 04:23:40;;;;;;;1999.90;999.90;;;3.10;1.00;;;;;;4924952;29;20461;-81
2023/03/27 04:26:06;;;;;;;1999.90;999.90;;;3.80;1.00;;;;;;4926362;29;20043;-79
2023/03/27 04:28:33;;;;;;;1999.90;999.90;;;;;;;;;;4928366;29;20047;-86
2023/03/27 04:31:00;;;;;;;1999.90;999.90;;;3.60;1.00;;;;;;4905557;29;20055;-83
2023/03/27 04:33:26;;;;;;;1999.90;999.90;;;3.20;1.00;;;;;;4920270;29;20461;-79
2023/03/27 04:35:51;;;;;;;1999.90;999.90;;;4.20;1.00;;;;;;4921153;29;20647;-80
2023/03/27 04:38:18;;;;;;;1999.90;999.90;;;5.80;1.00;;;;;;4930892;29;20447;-86
2023/03/27 04:40:48;;;;;;;1999.90;999.90;;;4.80;1.00;;;;;;4933652;29;20052;-83
2023/03/27 04:43:15;;;;;;;1999.90;999.90;;;5.80;1.00;;;;;;4922377;29;20126;-80
2023/03/27 04:45:46;;;;;;;1999.90;999.90;;;2.30;1.00;;;;;;4930042;29;20050;-80
2023/03/27 04:48:12;;;;;;;1999.90;999.90;;;4.60;1.00;;;;;;4932085;28;20043;-80
2023/03/27 04:50:39;;;;;;;1999.90;999.90;;;5.00;1.00;;;;;;4925668;29;20095;-80
2023/03/27 04:53:05;;;;;;;1999.90;999.90;;;5.30;1.00;;;;;;4927355;29;20500;-80
2023/03/27 04:55:36;;;;;;;1999.90;999.90;;;3.70;1.00;;;;;;4931018;29;20111;-80
2023/03/27 04:58:06;;;;;;;1999.90;999.90;;;3.30;1.00;;;;;;4933403;29;20047;-79
2023/03/27 05:00:32;;;;;;;1999.90;999.90;;;3.50;1.00;;;;;;4936157;29;20055;-81
2023/03/27 05:02:59;;;;;;;1999.90;999.90;;;4.00;1.00;;;;;;4927981;29;20056;-80
2023/03/27 05:05:26;;;;;;;1999.90;999.90;;;2.50;1.00;;;;;;4930382;29;20051;-80
2023/03/27 05:07:52;;;;;;;1999.90;999.90;;;3.10;1.00;;;;;;4929899;29;20083;-79
2023/03/27 05:10:18;;;;;;;1999.90;999.90;;;1.70;1.00;;;;;;4935124;29;20389;-79
2023/03/27 05:12:45;;;;;;;1999.90;999.90;;;3.90;1.00;;;;;;4931740;29;20051;-81
2023/03/27 05:15:12;;;;;;;1999.90;999.90;;;3.00;1.00;;;;;;4932699;29;20055;-80
2023/03/27 05:17:42;;;;;;;1999.90;999.90;;;3.20;1.00;;;;;;4919664;29;20044;-88
2023/03/27 05:20:16;;;;;;;1999.90;999.90;;;0.80;1.00;;;;;;4928578;28;20047;-84
2023/03/27 05:22:43;;;;;;;1999.90;999.90;;;2.40;1.00;;;;;;4937634;29;20039;-78
2023/03/27 05:25:09;;;;;;;1999.90;999.90;;;3.00;1.00;;;;;;4954775;29;20604;-78
2023/03/27 05:27:35;;;;;;;1999.90;999.90;;;1.90;1.00;;;;;;4954883;28;20062;-78
2023/03/27 05:30:01;;;;;;;1999.90;999.90;;;4.10;1.00;;;;;;4954487;28;20043;-78
2023/03/27 05:32:26;;;;;;;1999.90;999.90;;;5.10;1.00;;;;;;4953793;28;20051;-78
2023/03/27 05:34:55;;;;;;;1999.90;999.90;;;4.90;1.00;;;;;;4953245;28;20047;-79
2023/03/27 05:37:21;;;;;;;1999.90;999.90;;;5.10;1.00;;;;;;4955108;29;20138;-80
2023/03/27 05:39:47;;;;;;;1999.90;999.90;;;2.30;1.00;;;;;;4953935;29;20134;-79
2023/03/27 05:42:13;;;;;;;1999.90;999.90;;;2.80;1.00;;;;;;4949911;29;20053;-79
2023/03/27 05:44:41;;;;;;;1999.90;999.90;;;3.10;1.00;;;;;;4923065;29;20044;-78
2023/03/27 05:47:09;;;;;;;;;;;3.10;1.00;;;;;;4936665;29;20048;-78
2023/03/27 05:49:35;;;;;;;1999.90;999.90;;;4.60;1.00;;;;;;4938870;29;19927;-80
2023/03/27 05:52:01;;;;;;;1999.90;999.90;;;3.80;1.00;;;;;;4940979;28;20382;-79
2023/03/27 05:54:27;;;;;;;1999.90;999.90;;;3.90;1.00;;;;;;4947043;29;20058;-79
2023/03/27 05:56:53;;;;;;;1999.90;999.90;;;3.80;1.00;;;;;;4953507;28;20122;-79
2023/03/27 05:59:19;;;;;;;1999.90;999.90;;;6.10;1.00;;;;;;4955315;28;20572;-78
2023/03/27 06:01:45;;;;;;;1999.90;999.90;;;5.00;1.00;;;;;;4947663;29;20047;-79
2023/03/27 06:04:11;;;;;;;1999.90;999.90;;;4.50;1.00;;;;;;4948387;28;20054;-79
2023/03/27 06:06:40;;;;;;;1999.90;999.90;;;3.90;1.00;;;;;;4942135;28;20127;-79
2023/03/27 06:09:06;;;;;;;1999.90;999.90;;;4.70;1.00;;;;;;4953688;29;20047;-81
2023/03/27 06:11:32;;;;;;;1999.90;999.90;;;6.00;1.00;;;;;;4934841;29;20054;-80
2023/03/27 06:13:58;;;;;;;1999.90;999.90;;;6.30;1.00;;;;;;4951867;28;20391;-80
2023/03/27 06:16:24;;;;;;;1999.90;999.90;;;;;;;;;;4955377;29;20051;-80
2023/03/27 06:18:50;;;;;;;1999.90;999.90;;;5.10;99.90;;;;;;4955714;29;20090;-80
2023/03/27 06:21:16;;;;;;;1999.90;999.90;;;5.00;1.00;;;;;;4933702;29;20079;-81
2023/03/27 06:23:42;;;;;;;1999.90;999.90;;;6.70;99.90;;;;;;4954562;29;20407;-82
2023/03/27 06:26:08;;;;;;;1999.90;999.90;;;;;;;;;;4952129;29;20128;-80
2023/03/27 06:28:34;;;;;;;1999.90;999.90;;;4.80;99.90;;;;;;4935596;29;20052;-80
2023/03/27 06:31:00;;;;;;;1999.90;999.90;;;6.80;1.00;;;;;;4937083;29;20058;-79
2023/03/27 06:33:26;;;;;;;1999.90;999.90;;;4.20;1.00;;;;;;4952998;29;20488;-79
2023/03/27 06:35:59;;;;;;;1999.90;999.90;;;7.60;1.00;;;;;;4954884;28;20047;-79
2023/03/27 06:38:30;;;;;;;1999.90;999.90;;;4.90;1.00;;;;;;4954247;29;20051;-80
2023/03/27 06:40:58;;;;;;;1999.90;999.90;;;5.00;1.00;;;;;;4947206;28;20055;-80
2023/03/27 06:43:24;;;;;;;1999.90;999.90;;;4.00;1.00;;;;;;4949177;28;20512;-79
2023/03/27 06:45:50;;;;;;;1999.90;999.90;;;4.40;1.00;;;;;;4950506;28;20035;-80
2023/03/27 06:48:18;;;;;;;1999.90;999.90;;;4.40;1.00;;;;;;4931801;29;20059;-80
2023/03/27 06:50:45;;;;;;;1999.90;999.90;;;4.40;1.00;;;;;;4916777;29;20103;-79
2023/03/27 06:53:15;;;;;;;1999.90;999.90;;;3.30;1.00;;;;;;4930067;29;20791;-80
2023/03/27 06:55:41;;;;;;;1999.90;999.90;;;4.50;1.00;;;;;;4953314;28;20058;-86
2023/03/27 06:58:07;;;;;;;1999.90;999.90;;;;;;;;;;4953849;29;20552;-79
2023/03/27 07:00:36;;;;;;;1999.90;999.90;;;4.60;1.60;;;;;;4950437;29;20047;-79
2023/03/27 07:03:07;;;;;;;1999.90;999.90;;;2.80;34.30;;;;;;4919516;29;20060;-80
2023/03/27 07:05:35;;;;;;;1999.90;999.90;;;4.70;4.20;;;;;;4954894;28;20047;-79
2023/03/27 07:08:07;;;;;;;1999.90;999.90;;;3.50;54.50;;;;;;4950662;29;20400;-79
2023/03/27 07:10:33;;;;;;;1999.90;999.90;;;5.70;17.80;;;;;;4952561;28;20126;-79
2023/03/27 07:12:59;;;;;;;1999.90;999.90;;;5.50;3.70;;;;;;4947660;28;20078;-79
2023/03/27 07:15:25;;;;;;;1999.90;999.90;;;7.30;1.00;;;;;;4953169;29;20097;-80
2023/03/27 07:18:02;;;;;;;1999.90;999.90;;;5.90;21.20;;;;;;4949568;28;20081;-80
2023/03/27 07:20:29;;;;;;;1999.90;999.90;;;5.10;1.00;;;;;;4937592;29;20087;-80
2023/03/27 07:22:56;;;;;;;1999.90;999.90;;;6.40;1.00;;;;;;4948287;29;20138;-81
2023/03/27 07:25:39;;;;;;;1999.90;999.90;;;6.20;1.00;;;;;;4951956;28;20087;-80
2023/03/27 07:28:15;;;;;;;1999.90;999.90;;;5.70;1.00;;;;;;4953644;28;20522;-79
2023/03/27 07:30:41;;;;;;;1999.90;999.90;;;4.70;1.00;;;;;;4950514;29;20059;-79
2023/03/27 07:33:08;;;;;;;1999.90;999.90;;;6.30;1.00;;;;;;4942595;29;20044;-79
2023/03/27 07:35:40;;;;;;;1999.90;999.90;;;5.50;1.00;;;;;;4954162;29;20047;-79
2023/03/27 07:38:05;;;;;;;1999.90;999.90;;;5.80;1.00;;;;;;4954194;28;20082;-80
2023/03/27 07:40:32;;;;;;;1999.90;999.90;;;6.60;1.00;;;;;;4954027;29;20436;-79
2023/03/27 07:42:58;;;;;;;1999.90;999.90;;;6.20;1.00;;;;;;4952385;28;20047;-80
2023/03/27 07:45:24;;;;;;;1999.90;999.90;;;7.70;1.00;;;;;;4951017;29;20499;-86
2023/03/27 07:47:50;;;;;;;1999.90;999.90;;;6.80;1.00;;;;;;4939913;29;20039;-80
2023/03/27 07:50:19;;;;;;;1999.90;999.90;;;8.70;99.90;;;;;;4952489;29;20135;-79
2023/03/27 07:52:45;;;;;;;1999.90;999.90;;;8.50;99.90;;;;;;4947419;28;20110;-82
2023/03/27 07:55:17;;;;;;;1999.90;999.90;;;7.30;99.90;;;;;;4953627;28;20058;-79
2023/03/27 07:57:46;;;;;;;1999.90;999.90;;;9.20;99.90;;;;;;4954054;28;20126;-79
2023/03/27 08:00:14;;;;;;;1999.90;628.13;;;7.60;99.90;;;;;;4953948;28;20402;-80
2023/03/27 08:02:41;;;;;;;1999.90;999.90;;;;;;;;;;4945952;28;20067;-81
2023/03/27 08:05:08;;;;;;;1999.90;999.90;;;5.50;99.90;;;;;;4952977;29;20117;-80
2023/03/27 08:07:35;;;;;;;1999.90;999.90;;;7.30;99.90;;;;;;4954280;28;20496;-79
2023/03/27 08:10:03;;;;;;;1999.90;999.90;;;4.70;99.90;;;;;;4953269;29;20051;-82
2023/03/27 08:12:31;;;;;;;1999.90;999.90;;;7.40;1.00;;;;;;4943469;29;20055;-80
2023/03/27 08:14:57;;;;;;;1999.90;999.90;;;;;;;;;;4934991;29;20043;-83
2023/03/27 08:17:26;;;;;;;1999.90;999.90;;;7.90;99.90;;;;;;4953486;28;20122;-79
2023/03/27 08:19:52;;;;;;;1999.90;999.90;;;11.00;99.90;;;;;;4922747;29;20050;-79
2023/03/27 08:22:20;;;;;;;1999.90;999.90;;;11.50;99.90;;;;;;4950020;29;20514;-80
2023/03/27 08:24:46;;;;;;;1999.90;999.90;;;13.70;99.90;;;;;;4937207;29;20035;-81
2023/03/27 08:27:12;;;;;;;1999.90;999.90;;;14.60;99.90;;;;;;4950206;29;20054;-80
2023/03/27 08:29:38;;;;;;;1999.90;999.90;;;13.40;99.90;;;;;;4950343;28;20488;-80
2023/03/27 08:32:05;;;;;;;1999.90;999.90;;;15.10;99.90;;;;;;4956963;29;20058;-80
2023/03/27 08:34:30;;;;;;;1999.90;999.90;;;14.40;99.90;;;;;;4951162;28;20396;-80
2023/03/27 08:36:56;;;;;;;1999.90;999.90;;;15.00;99.90;;;;;;4953571;29;20047;-87
2023/03/27 08:39:22;;;;;;;1999.90;999.90;;;15.60;99.90;;;;;;4956568;28;20536;-80
2023/03/27 08:41:54;;;;;;;1999.90;999.63;;;16.10;99.90;;;;;;4954971;28;20476;-83
2023/03/27 08:44:22;;;;;;;1881.78;542.63;;;16.20;99.90;;;;;;4942201;29;20131;-80
2023/03/27 08:46:48;;;;;;;1677.05;778.17;;;16.40;99.90;;;;;;4942495;29;20044;-80
2023/03/27 08:49:20;;;;;;;1999.90;999.90;;;16.80;99.90;;;;;;4936657;29;20106;-80
2023/03/27 08:52:00;;;;;;;1999.90;999.90;;;17.20;99.90;;;;;;4937230;29;20142;-80
2023/03/27 08:54:33;;;;;;;1999.90;999.90;;;17.50;99.90;;;;;;4942454;29;20139;-80
2023/03/27 08:56:59;;;;;;;1999.90;999.90;;;17.80;99.90;;;;;;4937822;29;20488;-82
2023/03/27 08:59:28;;;;;;;1999.90;814.47;;;17.90;99.90;;;;;;4952653;28;20404;-80
2023/03/27 09:02:09;;;;;;;1988.22;569.28;;;18.00;99.90;;;;;;4949777;28;20055;-80
2023/03/27 09:04:44;;;;;;;1999.90;999.90;;;17.70;97.60;;;;;;4951392;28;20546;-80
2023/03/27 09:07:21;;;;;;;1999.90;999.90;;;17.60;99.90;;;;;;4948266;29;20058;-85
2023/03/27 09:10:02;;;;;;;1999.90;665.17;;;17.10;97.40;;;;;;4938368;29;20149;-79
2023/03/27 09:12:55;;;;;;;1999.90;999.90;;;15.90;96.40;;;;;;4946022;28;20122;-80
2023/03/27 09:15:25;;;;;;;1999.90;999.90;;;14.70;97.10;;;;;;4956436;28;20055;-79
2023/03/27 09:18:21;;;;;;;1999.90;999.90;;;13.50;99.90;;;;;;4955856;29;20444;-79
2023/03/27 09:21:08;;;;;;;1999.90;999.90;;;12.90;99.90;;;;;;4949636;28;20047;-87
2023/03/27 09:23:45;;;;;;;1999.90;999.90;;;13.50;99.90;;;;;;4901732;29;20047;-79
2023/03/27 09:26:19;;;;;;;1999.90;999.90;;;14.50;99.90;;;;;;4940683;29;20499;-79
2023/03/27 09:28:50;;;;;;;1999.90;999.90;;;15.40;99.90;;;;;;4955776;29;20067;-81
2023/03/27 09:31:28;;;;;;;1999.90;942.97;;;16.10;99.90;;;;;;4948827;29;20139;-79
2023/03/27 09:33:56;;;;;;;1999.90;999.90;;;16.50;92.80;;;;;;4956767;28;20489;-79
2023/03/27 09:36:26;;;;;;;1999.90;999.90;;;16.80;90.60;;;;;;4952387;28;20059;-79
2023/03/27 09:38:57;;;;;;;1999.90;999.90;;;16.70;85.40;;;;;;4954771;29;20083;-80
2023/03/27 09:41:33;;;;;;;1999.90;999.90;;;16.20;79.20;;;;;;4949165;28;20039;-80
2023/03/27 09:44:24;;;;;;;1999.90;999.90;;;16.40;85.60;;;;;;4955674;28;20043;-80
2023/03/27 09:46:59;;;;;;;1999.90;999.90;;;16.70;77.10;;;;;;4945990;29;20048;-80
2023/03/27 09:49:26;;;;;;;1999.90;999.90;;;16.70;68.30;;;;;;4955921;28;20499;-80
2023/03/27 09:51:53;;;;;;;1999.90;999.90;;;16.50;62.20;;;;;;4948416;28;20440;-80
2023/03/27 09:54:27;;;;;;;1999.90;999.90;;;16.40;62.10;;;;;;4936065;29;20123;-79
2023/03/27 09:57:13;;;;;;;1999.90;999.90;;;15.60;59.00;;;;;;4917663;29;20056;-80
2023/03/27 09:59:55;;;;;;;1999.90;999.90;;;15.10;49.10;;;;;;4951504;28;20100;-79
2023/03/27 10:02:24;;;;;;;1999.90;999.90;;;15.30;45.20;;;;;;4920478;29;20189;-79
2023/03/27 10:05:18;;;;;;;1999.90;999.90;;;15.70;47.10;;;;;;4928492;29;20055;-79
2023/03/27 10:07:47;;;;;;;1999.90;999.90;;;16.80;46.20;;;;;;4927061;29;20067;-79
2023/03/27 10:10:18;;;;;;;1999.90;999.90;;;17.50;52.40;;;;;;4927943;29;20488;-79
2023/03/27 10:12:52;;;;;;;1999.90;999.90;;;17.10;27.40;;;;;;4929818;29;20056;-79
2023/03/27 10:15:37;;;;;;;1999.90;999.90;;;16.10;27.40;;;;;;4926393;29;20059;-80
2023/03/27 10:18:21;;;;;;;1999.90;999.90;;;14.90;31.50;;;;;;4929327;29;20105;-79
2023/03/27 10:20:52;;;;;;;1999.90;999.90;;;14.10;39.50;;;;;;4925581;29;20421;-80
2023/03/27 10:23:28;;;;;;;1999.90;999.90;;;14.10;49.40;;;;;;4931379;29;20082;-79
2023/03/27 10:25:59;;;;;;;1999.90;999.90;;;15.00;46.70;;;;;;4921788;29;20406;-79
2023/03/27 10:28:35;;;;;;;1999.90;999.90;;;15.60;37.50;;;;;;4934066;29;20481;-79
2023/03/27 10:31:10;;;;;;;1999.90;999.90;;;15.40;29.50;;;;;;4929475;28;20048;-81
2023/03/27 10:33:39;;;;;;;1999.90;999.90;;;15.90;29.50;;;;;;4925442;29;20556;-79
2023/03/27 10:36:08;;;;;;;1999.90;999.90;;;16.60;26.80;;;;;;4931658;29;20051;-79
2023/03/27 10:38:37;;;;;;;1999.90;999.90;;;17.30;25.50;;;;;;4932229;29;21779;-81
2023/03/27 10:41:12;;;;;;;1999.90;999.90;;;17.80;18.90;;;;;;4923370;29;20056;-79
2023/03/27 10:43:43;;;;;;;1999.90;998.70;;;18.20;4.90;;;;;;4915558;29;20115;-81
2023/03/27 10:46:21;;;;;;;1999.90;999.90;;;18.40;4.80;;;;;;4921483;29;20047;-87
2023/03/27 10:49:24;;;;;;;1999.90;999.90;;;18.80;1.00;;;;;;4934290;29;20040;-80
2023/03/27 10:51:58;;;;;;;1999.90;999.90;;;18.90;1.00;;;;;;4952117;28;20047;-80
2023/03/27 10:54:30;;;;;;;1999.90;999.90;;;18.70;1.00;;;;;;4955128;28;20055;-80
2023/03/27 10:57:10;;;;;;;1999.90;999.90;;;18.40;1.00;;;;;;4947455;28;20047;-79
2023/03/27 10:59:46;;;;;;;1451.70;557.15;;;18.60;1.00;;;;;;4947277;28;20082;-80
2023/03/27 11:02:56;;;;;;;1987.65;818.90;;;19.30;1.00;;;;;;4951206;28;20090;-80
2023/03/27 11:05:31;;;;;;;1999.90;307.90;;;19.40;1.00;;;;;;4908631;28;20055;-80
2023/03/27 11:08:02;;;;;;;1999.90;999.90;;;19.10;1.00;;;;;;4951654;29;20411;-80
2023/03/27 11:10:48;;;;;;;1999.90;999.90;;;18.80;1.00;;;;;;4947553;29;20485;-81
2023/03/27 11:13:27;;;;;;;1999.90;999.90;;;19.30;1.00;;;;;;4954462;28;20046;-79
2023/03/27 11:16:10;;;;;;;1999.90;999.90;;;19.90;1.00;;;;;;4954918;28;20138;-79
2023/03/27 11:18:41;;;;;;;1999.90;999.90;;;19.50;1.00;;;;;;4950364;29;20074;-81
2023/03/27 11:21:12;;;;;;;1999.90;999.90;;;18.80;1.00;;;;;;4918581;29;20052;-79
2023/03/27 11:23:56;;;;;;;1999.90;999.90;;;18.30;1.00;;;;;;4900042;29;20048;-79
2023/03/27 11:26:32;;;;;;;1999.90;999.90;;;18.50;1.00;;;;;;4915267;29;20460;-80
2023/03/27 11:29:41;;;;;;;1999.90;999.90;;;18.90;1.00;;;;;;4942200;29;20095;-80
2023/03/27 11:32:20;;;;;;;1999.90;999.90;;;19.10;1.00;;;;;;4864453;29;20056;-80
2023/03/27 11:34:52;;;;;;;1936.05;724.33;;;19.10;1.00;;;;;;4913229;29;20067;-79
2023/03/27 11:38:09;;;;;;;1999.90;999.90;;;19.40;1.00;;;;;;4920687;29;20048;-80
2023/03/27 11:40:47;;;;;;;1642.25;788.10;;;20.10;1.00;;;;;;4900310;29;20071;-81
2023/03/27 11:43:17;;;;;;;1999.90;999.90;;;18.90;1.00;;;;;;4934130;29;20079;-90
2023/03/27 11:46:05;;;;;;;1999.90;999.90;;;17.60;1.00;;;;;;4947877;29;20047;-79
2023/03/27 11:48:56;;;;;;;1999.90;999.90;;;16.20;1.00;;;;;;4934193;29;20047;-79
2023/03/27 11:51:30;;;;;;;1999.90;999.90;;;14.50;1.00;;;;;;4948229;29;20054;-79
2023/03/27 11:54:04;;;;;;;1999.90;999.90;;;14.20;1.60;;;;;;4954197;28;20047;-80
2023/03/27 11:56:47;;;;;;;1999.90;999.90;;;14.80;3.70;;;;;;4952775;29;20531;-79
2023/03/27 11:59:22;;;;;;;1999.90;999.90;;;15.90;1.00;;;;;;4950383;29;20055;-80
2023/03/27 12:01:54;;;;;;;1999.90;999.90;;;16.90;1.00;;;;;;4949506;29;20055;-80
2023/03/27 12:04:43;;;;;;;1999.90;999.90;;;17.30;1.00;;;;;;4956088;28;20066;-80
2023/03/27 12:07:33;;;;;;;1999.90;999.90;;;17.90;1.00;;;;;;4957353;29;20051;-80
2023/03/27 12:10:20;;;;;;;1999.90;437.40;;;18.30;1.00;;;;;;4945036;29;20102;-83
2023/03/27 12:12:58;;;;;;;1999.90;999.90;;;18.40;1.00;;;;;;4945313;28;20121;-79
2023/03/27 12:15:35;;;;;;;1999.90;999.90;;;17.90;1.00;;;;;;4918518;29;20128;-79
2023/03/27 12:18:07;;;;;;;1999.90;999.90;;;16.70;1.00;;;;;;4902863;29;20486;-80
2023/03/27 12:20:32;;;;;;;1999.90;999.90;;;15.50;1.00;;;;;;4946782;29;20055;-80
2023/03/27 12:23:37;;;;;;;1999.90;999.90;;;14.50;1.00;;;;;;4946391;29;20043;-80
2023/03/27 12:26:26;;;;;;;1999.90;999.90;;;14.00;1.00;;;;;;4914819;29;20075;-79
2023/03/27 12:29:26;;;;;;;1999.90;999.90;;;13.20;1.00;;;;;;4957848;29;20110;-79
2023/03/27 12:32:06;;;;;;;1999.90;999.90;;;12.40;1.00;;;;;;4935171;29;20094;-78
2023/03/27 12:34:55;;;;;;;1999.90;999.90;;;11.70;1.00;;;;;;4951574;29;20508;-79
2023/03/27 12:37:26;;;;;;;;;;;11.20;1.00;;;;;;4956672;28;20047;-79
2023/03/27 12:39:56;;;;;;;1999.90;999.90;;;10.80;1.00;;;;;;4954897;28;19922;-79